Andrus Island, California
Current Conditions -  °F | °C
As of 3:58 PM on Friday 24 Oct 2014 (Local Time) from KSUU Reporting Station
Clear Clear  
Wind Chill: 25°   Ceiling: Unl
Heat Index: 26°   Visibility: 10mi
Dew Point: 12°   Wind: 16mph
Humidity: 45%   Direction: 250°WSW
Pressure: 29.85"   Gusts: NA
Location:  38.1457°N, 121.624°W
Report Text: KSUU 242258Z AUTO 25014KT 10SM CLR 25/12 A2985 RMK AO2 SLP115 T02490121 $
Loading
Personal Weather Stations






























Interactive Weather Map
Tropical Storm Tracking
New forecast layout! Learn more

10-Day Weather Forecast

Advertisements
Track Severe Weather on mobile